Time;durP1;ratioP1;P1;durP2;ratioP2;P2;SDS_P1;SDS_P2;PMS_P1;PMS_P2;Temp;Humidity;BMP_temperature;BMP_pressure;BME280_temperature;BME280_humidity;BME280_pressure;Samples;Min_cycle;Max_cycle;Signal;HPM_P1;HPM_P2
2022/03/13 00:00:49;;;;;;;40.17;21.60;;;;;;;-1.80;47.08;101145.27;1650308;85;21122;-58
2022/03/13 00:03:20;;;;;;;56.63;24.20;;;;;;;-1.90;47.37;101150.49;1663116;84;21054;-58
2022/03/13 00:05:50;;;;;;;49.48;24.77;;;;;;;-2.09;47.67;101146.80;1628534;87;21108;-58
2022/03/13 00:08:32;;;;;;;43.35;22.58;;;;;;;-2.03;47.37;101145.67;1627870;86;21261;-59
2022/03/13 00:11:17;;;;;;;41.53;20.60;;;;;;;-2.08;47.52;101145.09;1628279;86;21481;-56
2022/03/13 00:13:51;;;;;;;44.60;21.52;;;;;;;-1.99;47.52;101140.77;1640083;86;21068;-60
2022/03/13 00:16:20;;;;;;;48.30;24.45;;;;;;;-1.83;47.21;101135.21;1636091;86;21077;-57
2022/03/13 00:18:49;;;;;;;51.98;26.52;;;;;;;-1.86;47.27;101136.64;1635822;86;21105;-62
2022/03/13 00:21:18;;;;;;;56.50;25.55;;;;;;;-1.80;47.10;101134.23;1635813;86;21295;-57
2022/03/13 00:23:47;;;;;;;49.40;24.12;;;;;;;-1.92;47.21;101133.61;1619278;87;21146;-58
2022/03/13 00:26:15;;;;;;;52.60;24.15;;;;;;;-2.35;47.95;101134.55;1630487;87;21551;-58
2022/03/13 00:28:43;;;;;;;43.30;20.15;;;;;;;-2.26;48.02;101133.64;1629788;87;20986;-58
2022/03/13 00:31:11;;;;;;;43.48;21.42;;;;;;;-2.09;47.84;101138.31;1628506;86;21534;-60
2022/03/13 00:33:38;;;;;;;45.17;22.35;;;;;;;-2.00;47.73;101136.58;1628186;86;21293;-57
2022/03/13 00:36:07;;;;;;;45.58;24.32;;;;;;;-2.34;48.03;101133.21;1628795;87;21519;-57
2022/03/13 00:38:34;;;;;;;52.95;26.55;;;;;;;-1.94;47.80;101134.95;1627538;87;20990;-57
2022/03/13 00:41:03;;;;;;;52.33;27.40;;;;;;;-1.97;47.70;101134.69;1628494;87;21139;-58
2022/03/13 00:43:30;;;;;;;49.90;27.85;;;;;;;-1.96;47.79;101138.06;1623446;86;21187;-57
2022/03/13 00:45:58;;;;;;;57.98;29.40;;;;;;;-1.98;48.07;101142.41;1630610;87;21253;-56
2022/03/13 00:48:26;;;;;;;50.30;26.60;;;;;;;-1.73;47.55;101135.09;1634854;86;21059;-59
2022/03/13 00:50:54;;;;;;;47.27;25.12;;;;;;;-1.80;47.48;101140.16;1619208;87;21023;-58
2022/03/13 00:53:21;;;;;;;48.35;23.95;;;;;;;-2.17;48.05;101139.17;1627575;87;21055;-59
2022/03/13 00:55:49;;;;;;;46.13;22.58;;;;;;;-2.59;48.91;101133.62;1627786;87;21092;-57
2022/03/13 00:58:16;;;;;;;44.88;20.55;;;;;;;-2.60;49.11;101130.70;1628201;86;21251;-57
2022/03/13 01:00:44;;;;;;;48.48;29.35;;;;;;;-2.12;48.72;101139.74;1627465;86;21109;-57
2022/03/13 01:03:36;;;;;;;60.17;35.92;;;;;;;-2.36;48.70;101135.45;1628368;87;21602;-57
2022/03/13 01:06:06;;;;;;;59.15;31.37;;;;;;;-2.46;48.62;101139.77;1628429;86;21041;-61
2022/03/13 01:08:33;;;;;;;70.52;32.63;;;;;;;-2.68;49.03;101141.75;1627651;86;21051;-59
2022/03/13 01:11:03;;;;;;;51.37;26.20;;;;;;;-2.58;48.82;101138.27;1628245;87;20991;-59
2022/03/13 01:13:30;;;;;;;56.00;28.98;;;;;;;-2.69;48.40;101142.63;1628071;86;21203;-57
2022/03/13 01:16:20;;;;;;;61.70;30.12;;;;;;;-2.98;48.83;101150.00;1627954;87;21136;-59
2022/03/13 01:18:55;;;;;;;77.60;36.93;;;;;;;-2.91;48.95;101151.81;1633671;87;21104;-61
2022/03/13 01:21:22;;;;;;;72.27;36.17;;;;;;;-2.86;48.97;101157.50;1634183;86;21158;-59
2022/03/13 01:24:01;;;;;;;59.38;28.50;;;;;;;-2.93;49.08;101154.87;1605001;87;21182;-59
2022/03/13 01:26:34;;;;;;;47.03;24.18;;;;;;;-2.95;49.38;101161.33;1593440;87;20949;-59
2022/03/13 01:29:12;;;;;;;44.08;20.52;;;;;;;-2.92;49.23;101159.52;1634648;87;21180;-58
2022/03/13 01:31:44;;;;;;;41.90;20.40;;;;;;;-2.82;49.15;101163.28;1627533;86;21111;-58
2022/03/13 01:34:12;;;;;;;42.55;19.67;;;;;;;-2.82;48.82;101161.55;1605580;87;21029;-59
2022/03/13 01:36:39;;;;;;;40.98;19.62;;;;;;;-3.01;48.84;101160.80;1633237;87;21537;-59
2022/03/13 01:39:09;;;;;;;57.33;25.72;;;;;;;-3.01;49.32;101163.34;1628784;87;21485;-58
2022/03/13 01:41:36;;;;;;;53.90;25.60;;;;;;;-2.69;48.85;101159.21;1627373;87;21093;-58
2022/03/13 01:44:05;;;;;;;59.15;25.88;;;;;;;-2.55;48.24;101166.20;1628442;86;21128;-59
2022/03/13 01:46:32;;;;;;;52.15;25.12;;;;;;;-2.66;48.17;101173.10;1632146;86;21085;-60
2022/03/13 01:49:07;;;;;;;77.12;32.58;;;;;;;-2.68;48.34;101176.20;1630169;86;21623;-58
2022/03/13 01:51:35;;;;;;;68.00;31.17;;;;;;;-2.73;48.42;101176.43;1622044;87;21132;-59
2022/03/13 01:54:07;;;;;;;38.35;19.98;;;;;;;-2.73;48.69;101178.98;1627806;87;21093;-59
2022/03/13 01:56:35;;;;;;;39.08;19.05;;;;;;;-3.15;49.90;101183.12;1627940;87;21143;-57
2022/03/13 01:59:03;;;;;;;43.85;19.35;;;;;;;-2.88;49.70;101186.53;1628009;86;22185;-60
2022/03/13 02:01:30;;;;;;;39.38;19.55;;;;;;;-2.86;49.98;101186.02;1621563;87;22511;-58
2022/03/13 02:03:57;;;;;;;43.25;20.20;;;;;;;-2.94;49.94;101191.49;1627471;87;21443;-59
2022/03/13 02:06:26;;;;;;;36.20;17.25;;;;;;;-3.10;50.48;101195.22;1635198;84;21099;-59
2022/03/13 02:08:54;;;;;;;32.95;16.25;;;;;;;-3.07;50.49;101193.81;1619506;88;21081;-62
2022/03/13 02:11:26;;;;;;;37.08;17.67;;;;;;;-3.13;50.67;101196.64;1627366;87;21175;-58
2022/03/13 02:13:55;;;;;;;31.75;15.68;;;;;;;-3.15;50.82;101197.14;1628394;86;21261;-61
2022/03/13 02:16:22;;;;;;;30.37;16.35;;;;;;;-3.12;50.96;101197.45;1627502;87;21610;-58
2022/03/13 02:18:51;;;;;;;34.23;16.97;;;;;;;-3.13;51.03;101199.64;1628257;87;21702;-60
2022/03/13 02:21:25;;;;;;;38.23;18.52;;;;;;;-3.08;50.85;101200.23;1628513;87;21519;-58
2022/03/13 02:23:58;;;;;;;43.02;21.55;;;;;;;-3.12;50.63;101200.01;1627620;87;21582;-59
2022/03/13 02:26:25;;;;;;;67.78;30.45;;;;;;;-3.20;50.28;101206.29;1628008;86;21417;-59
2022/03/13 02:28:55;;;;;;;60.03;26.95;;;;;;;-2.93;48.94;101213.55;1605507;89;21075;-59
2022/03/13 02:31:34;;;;;;;48.48;23.87;;;;;;;-3.22;49.53;101214.47;1628367;87;21058;-59
2022/03/13 02:34:01;;;;;;;50.23;24.75;;;;;;;-3.02;49.74;101216.09;1627824;87;21100;-62
2022/03/13 02:36:40;;;;;;;42.30;20.92;;;;;;;-3.21;50.24;101217.84;1633371;87;21088;-58
2022/03/13 02:39:07;;;;;;;35.45;19.00;;;;;;;-2.75;49.84;101219.50;1604982;89;21342;-58
2022/03/13 02:41:35;;;;;;;36.58;16.52;;;;;;;-2.57;49.37;101222.89;1605131;88;21041;-58
2022/03/13 02:44:05;;;;;;;39.33;18.62;;;;;;;-2.53;49.45;101219.29;1604919;87;21667;-58
2022/03/13 02:46:53;;;;;;;41.23;20.23;;;;;;;-2.47;49.71;101221.06;1600796;86;21053;-58
2022/03/13 02:49:22;;;;;;;33.70;17.40;;;;;;;-2.39;49.66;101225.80;1619375;88;21497;-59
2022/03/13 02:51:55;;;;;;;34.58;17.40;;;;;;;-2.23;49.26;101224.15;1618903;87;21279;-58
2022/03/13 02:54:19;;;;;;;32.67;17.27;;;;;;;-2.35;49.22;101231.58;1623642;86;21044;-58
2022/03/13 02:56:47;;;;;;;39.25;18.07;;;;;;;-2.40;49.38;101236.92;1605702;89;21037;-58
2022/03/13 02:59:14;;;;;;;35.35;17.57;;;;;;;-2.40;49.49;101241.20;1618480;88;21213;-61
2022/03/13 03:01:41;;;;;;;31.17;16.25;;;;;;;-2.42;49.74;101240.02;1605460;87;21211;-58
2022/03/13 03:04:09;;;;;;;39.60;20.02;;;;;;;-2.39;49.71;101241.11;1605871;87;21284;-59
2022/03/13 03:06:37;;;;;;;44.55;20.15;;;;;;;-2.47;49.62;101243.22;1629174;86;20959;-58
2022/03/13 03:09:06;;;;;;;39.15;18.27;;;;;;;-2.44;49.52;101252.02;1626137;86;20963;-60
2022/03/13 03:11:33;;;;;;;34.38;17.55;;;;;;;-2.45;49.53;101255.48;1609007;87;21092;-59
2022/03/13 03:14:02;;;;;;;41.15;20.17;;;;;;;-2.46;49.50;101256.39;1635747;87;21128;-58
2022/03/13 03:16:29;;;;;;;36.65;18.10;;;;;;;-2.53;49.39;101256.30;1659753;86;21282;-58
2022/03/13 03:18:58;;;;;;;31.85;17.42;;;;;;;-2.52;49.56;101263.05;1652444;86;21011;-61
2022/03/13 03:21:26;;;;;;;28.55;15.23;;;;;;;-2.46;49.42;101266.59;1656608;84;21370;-58
2022/03/13 03:23:54;;;;;;;35.45;16.82;;;;;;;-2.50;49.45;101267.62;1625412;87;21493;-58
2022/03/13 03:26:23;;;;;;;35.55;17.42;;;;;;;-2.54;49.54;101269.95;1623888;87;21121;-58
2022/03/13 03:28:52;;;;;;;42.67;20.68;;;;;;;-2.57;49.59;101276.05;1622033;86;20990;-60
2022/03/13 03:31:20;;;;;;;39.23;19.67;;;;;;;-2.58;49.70;101272.27;1632231;87;21069;-58
2022/03/13 03:33:49;;;;;;;36.58;19.35;;;;;;;-2.47;49.60;101273.41;1635885;87;20915;-59
2022/03/13 03:36:17;;;;;;;41.40;20.32;;;;;;;-2.45;49.34;101279.73;1634288;87;21050;-58
2022/03/13 03:38:46;;;;;;;39.95;21.07;;;;;;;-2.44;49.14;101277.55;1634751;87;20900;-62
2022/03/13 03:41:13;;;;;;;36.17;18.73;;;;;;;-2.43;48.90;101274.53;1616027;87;21293;-58
2022/03/13 03:43:42;;;;;;;35.90;18.45;;;;;;;-2.55;49.13;101281.06;1632949;87;21586;-58
2022/03/13 03:46:10;;;;;;;56.80;22.45;;;;;;;-2.61;49.22;101283.47;1642818;86;21086;-58
2022/03/13 03:48:37;;;;;;;64.85;24.52;;;;;;;-2.45;48.89;101285.66;1649449;86;21552;-61
2022/03/13 03:51:04;;;;;;;55.10;22.82;;;;;;;-2.52;48.88;101279.64;1619216;87;21030;-61
2022/03/13 03:53:32;;;;;;;56.73;23.47;;;;;;;-2.63;48.94;101281.43;1615397;87;21303;-61
2022/03/13 03:56:02;;;;;;;52.38;22.48;;;;;;;-2.71;49.02;101279.24;1652872;86;21527;-61
2022/03/13 03:58:29;;;;;;;57.67;22.30;;;;;;;-2.73;49.09;101282.76;1629995;86;21605;-58
2022/03/13 04:00:57;;;;;;;54.10;22.00;;;;;;;-2.53;48.89;101285.20;1692614;79;20980;-59
2022/03/13 04:03:25;;;;;;;54.90;22.17;;;;;;;-2.42;48.69;101282.56;1751688;79;21559;-60
2022/03/13 04:05:54;;;;;;;56.13;22.60;;;;;;;-2.55;48.77;101292.09;1748084;80;22432;-57
2022/03/13 04:08:21;;;;;;;51.25;22.55;;;;;;;-2.26;48.76;101288.14;1739958;81;21215;-58
2022/03/13 04:10:51;;;;;;;55.25;23.85;;;;;;;-2.28;48.65;101289.94;1760743;81;21473;-62
2022/03/13 04:13:19;;;;;;;58.58;24.10;;;;;;;-2.25;49.02;101291.06;1750890;79;21008;-57
2022/03/13 04:15:47;;;;;;;52.75;23.50;;;;;;;-1.98;48.79;101296.98;1719904;82;21079;-59
2022/03/13 04:18:17;;;;;;;48.73;24.55;;;;;;;-1.74;48.69;101288.09;1725184;81;21048;-59
2022/03/13 04:20:44;;;;;;;47.00;21.80;;;;;;;-1.44;48.77;101294.23;1736144;81;21119;-59
2022/03/13 04:23:12;;;;;;;49.05;22.32;;;;;;;-1.05;48.86;101293.41;1742866;80;20972;-62
2022/03/13 04:25:39;;;;;;;58.58;22.98;;;;;;;-0.44;48.96;101294.33;1734051;81;21021;-58
2022/03/13 04:28:10;;;;;;;47.93;23.30;;;;;;;0.15;48.51;101289.22;1757720;81;21122;-59
2022/03/13 04:30:39;;;;;;;50.17;22.65;;;;;;;0.58;47.69;101290.52;1755361;81;21284;-59
2022/03/13 04:33:07;;;;;;;47.43;21.82;;;;;;;1.01;47.13;101296.39;1730279;79;21055;-62
2022/03/13 04:35:34;;;;;;;45.73;20.05;;;;;;;1.35;46.35;101295.55;1737601;81;21341;-60
2022/03/13 04:38:03;;;;;;;38.95;17.87;;;;;;;1.61;45.44;101292.13;1730953;81;21018;-60
2022/03/13 04:40:32;;;;;;;36.88;16.95;;;;;;;1.56;45.01;101296.75;1732624;82;21025;-61
2022/03/13 04:42:59;;;;;;;33.58;17.20;;;;;;;1.39;44.66;101300.85;1721843;80;21152;-62
2022/03/13 04:45:28;;;;;;;36.63;18.10;;;;;;;1.89;44.21;101296.27;1760601;79;21377;-61
2022/03/13 04:47:56;;;;;;;31.45;16.15;;;;;;;2.45;42.28;101293.39;1726927;82;20934;-61
2022/03/13 04:50:23;;;;;;;29.82;14.45;;;;;;;2.95;41.08;101286.48;1758315;80;21025;-62
2022/03/13 04:52:51;;;;;;;35.58;17.27;;;;;;;2.81;40.81;101288.75;1765371;80;21457;-62
2022/03/13 04:55:19;;;;;;;32.55;16.55;;;;;;;1.39;42.52;101299.56;1739453;81;21523;-60
2022/03/13 04:57:46;;;;;;;29.57;15.23;;;;;;;1.16;42.72;101306.98;1766160;79;21005;-61
2022/03/13 05:00:15;;;;;;;36.10;17.17;;;;;;;0.70;42.79;101308.55;1763450;80;21047;-59
2022/03/13 05:02:43;;;;;;;30.17;15.88;;;;;;;0.53;43.27;101315.61;1743506;80;21584;-62
2022/03/13 05:05:11;;;;;;;30.35;17.02;;;;;;;0.59;43.39;101318.63;1730119;81;21113;-59
2022/03/13 05:07:39;;;;;;;35.15;17.02;;;;;;;0.31;43.69;101323.31;1758262;79;21145;-59
2022/03/13 05:10:07;;;;;;;34.25;17.37;;;;;;;0.35;43.98;101322.68;1752490;79;21083;-59
2022/03/13 05:12:35;;;;;;;34.00;18.25;;;;;;;0.41;43.96;101321.83;1742375;81;21075;-59
2022/03/13 05:15:04;;;;;;;30.25;17.00;;;;;;;0.41;43.96;101321.83;1744896;81;22039;-61
2022/03/13 05:17:31;;;;;;;38.00;19.77;;;;;;;0.18;44.44;101325.76;1733876;81;21070;-60
2022/03/13 05:19:58;;;;;;;37.85;19.50;;;;;;;0.29;44.68;101331.55;1771552;79;21507;-61
2022/03/13 05:22:25;;;;;;;34.00;18.50;;;;;;;0.36;44.78;101328.98;1770285;79;21088;-62
2022/03/13 05:24:54;;;;;;;29.82;16.37;;;;;;;0.35;44.95;101340.17;1769763;80;21465;-60
2022/03/13 05:27:22;;;;;;;34.95;18.77;;;;;;;0.55;44.84;101341.55;1746591;79;21351;-60
2022/03/13 05:29:49;;;;;;;33.60;18.07;;;;;;;0.71;44.68;101342.73;1726790;80;21056;-60
2022/03/13 05:32:18;;;;;;;37.55;19.35;;;;;;;0.71;44.68;101342.73;1743222;80;21256;-61
2022/03/13 05:34:47;;;;;;;36.33;19.27;;;;;;;1.34;44.09;101338.86;1766310;80;21345;-61
2022/03/13 05:37:15;;;;;;;39.10;20.12;;;;;;;1.42;43.81;101345.63;1772972;79;21352;-59
2022/03/13 05:39:42;;;;;;;38.75;18.45;;;;;;;1.38;44.19;101344.98;1747737;80;21035;-59
2022/03/13 05:42:09;;;;;;;36.53;20.77;;;;;;;1.64;44.07;101346.38;1762037;81;21049;-63
2022/03/13 05:44:37;;;;;;;36.08;18.75;;;;;;;1.72;44.21;101353.59;1742279;81;22379;-61
2022/03/13 05:47:05;;;;;;;36.70;19.67;;;;;;;1.87;44.34;101346.16;1754554;81;21596;-59
2022/03/13 05:49:33;;;;;;;35.48;19.20;;;;;;;2.11;44.52;101348.40;1759577;79;21096;-59
2022/03/13 05:52:01;;;;;;;34.13;18.35;;;;;;;2.31;44.45;101357.83;1733492;80;21071;-63
2022/03/13 05:54:42;;;;;;;38.45;17.50;;;;;;;2.45;44.16;101359.02;1702998;82;20964;-62
2022/03/13 05:57:11;;;;;;;36.17;19.40;;;;;;;2.87;43.54;101355.73;1720663;82;21174;-58
2022/03/13 05:59:38;;;;;;;30.37;16.75;;;;;;;3.03;42.76;101363.20;1722960;82;20919;-62
2022/03/13 06:02:07;;;;;;;29.18;17.00;;;;;;;3.04;42.49;101358.44;1716648;82;21111;-59
2022/03/13 06:04:36;;;;;;;31.00;17.10;;;;;;;3.24;42.47;101365.58;1722114;82;20972;-59
2022/03/13 06:07:05;;;;;;;26.75;15.23;;;;;;;3.21;42.15;101366.26;1725014;82;21633;-59
2022/03/13 06:09:33;;;;;;;36.20;18.75;;;;;;;4.00;41.60;101358.41;1720802;82;21264;-61
2022/03/13 06:12:03;;;;;;;35.85;18.77;;;;;;;5.14;39.60;101357.86;1721677;80;21092;-60
2022/03/13 06:14:30;;;;;;;34.70;20.35;;;;;;;5.12;39.21;101364.45;1717962;82;21115;-58
2022/03/13 06:16:59;;;;;;;32.48;17.90;;;;;;;4.06;40.32;101365.23;1730413;80;21237;-59
2022/03/13 06:19:28;;;;;;;28.23;18.85;;;;;;;4.50;40.52;101377.03;1737567;80;21016;-60
2022/03/13 06:21:55;;;;;;;36.05;21.07;;;;;;;5.56;39.16;101369.14;1727080;81;21087;-60
2022/03/13 06:24:24;;;;;;;27.70;16.57;;;;;;;6.03;39.13;101367.09;1736490;80;21505;-60
2022/03/13 06:26:51;;;;;;;26.97;16.23;;;;;;;6.49;39.23;101362.45;1703425;83;20985;-59
2022/03/13 06:29:19;;;;;;;32.53;20.65;;;;;;;6.92;38.48;101367.86;1701791;83;21130;-60
2022/03/13 06:31:47;;;;;;;27.35;15.50;;;;;;;6.01;38.45;101368.16;1726776;82;21020;-62
2022/03/13 06:34:15;;;;;;;32.05;18.70;;;;;;;6.00;38.77;101369.93;1729685;82;21239;-60
2022/03/13 06:36:44;;;;;;;29.32;18.30;;;;;;;6.28;38.60;101368.45;1716678;82;21048;-61
2022/03/13 06:39:11;;;;;;;29.35;16.35;;;;;;;6.51;37.57;101369.13;1727641;82;20993;-59
2022/03/13 06:41:38;;;;;;;29.77;15.75;;;;;;;8.09;35.26;101360.98;1727231;82;21058;-59
2022/03/13 06:44:06;;;;;;;30.50;17.32;;;;;;;8.38;34.26;101370.05;1728432;82;21329;-60
2022/03/13 06:46:34;;;;;;;29.18;16.57;;;;;;;8.60;33.03;101371.45;1724187;82;21231;-60
2022/03/13 06:49:05;;;;;;;29.65;16.70;;;;;;;8.78;33.53;101372.34;1732108;81;20985;-64
2022/03/13 06:51:32;;;;;;;25.25;16.05;;;;;;;8.95;33.08;101374.19;1717394;82;21076;-59
2022/03/13 06:53:59;;;;;;;23.90;14.85;;;;;;;8.86;33.20;101373.73;1724027;81;21736;-62
2022/03/13 06:56:26;;;;;;;23.00;14.40;;;;;;;9.17;32.49;101374.76;1722462;81;21012;-61
2022/03/13 06:58:58;;;;;;;23.98;14.15;;;;;;;9.31;31.84;101379.44;1730037;81;21227;-64
2022/03/13 07:01:24;;;;;;;21.85;13.08;;;;;;;9.50;31.40;101377.19;1731659;81;21052;-62
2022/03/13 07:03:52;;;;;;;21.62;12.58;;;;;;;9.58;30.81;101377.74;1737152;81;21657;-61
2022/03/13 07:06:19;;;;;;;16.10;10.43;;;;;;;9.55;30.41;101376.77;1731533;80;21103;-61
2022/03/13 07:08:47;;;;;;;15.20;9.60;;;;;;;9.56;30.25;101379.20;1722981;81;21135;-61
2022/03/13 07:11:15;;;;;;;14.65;10.00;;;;;;;9.69;30.13;101384.84;1730748;81;21292;-60
2022/03/13 07:13:45;;;;;;;18.35;10.98;;;;;;;9.77;29.96;101379.37;1736996;81;21493;-59
2022/03/13 07:16:12;;;;;;;15.88;9.65;;;;;;;10.05;29.83;101387.42;1729353;80;21202;-61
2022/03/13 07:18:41;;;;;;;13.40;8.13;;;;;;;10.39;29.06;101388.82;1687526;83;21015;-59
2022/03/13 07:21:09;;;;;;;12.30;7.05;;;;;;;10.70;28.47;101383.93;1688787;83;21101;-58
2022/03/13 07:23:37;;;;;;;12.13;7.80;;;;;;;11.03;27.62;101379.34;1695607;82;22020;-63
2022/03/13 07:26:04;;;;;;;14.73;8.00;;;;;;;11.08;27.23;101382.28;1711135;81;21112;-60
2022/03/13 07:28:32;;;;;;;13.53;7.92;;;;;;;11.33;27.57;101383.17;1716874;82;21599;-60
2022/03/13 07:30:59;;;;;;;11.95;7.78;;;;;;;11.70;27.54;101386.63;1717233;82;21145;-61
2022/03/13 07:33:28;;;;;;;16.85;10.40;;;;;;;12.20;27.60;101388.76;1718507;82;21471;-62
2022/03/13 07:35:57;;;;;;;15.55;9.38;;;;;;;12.82;26.88;101381.08;1721442;81;21132;-63
2022/03/13 07:38:26;;;;;;;13.55;8.85;;;;;;;13.15;26.37;101382.55;1725626;81;21664;-63
2022/03/13 07:40:53;;;;;;;11.83;7.63;;;;;;;13.54;25.61;101380.88;1699312;81;21064;-62
2022/03/13 07:43:21;;;;;;;15.60;9.80;;;;;;;13.67;25.15;101375.03;1717561;82;21329;-64
2022/03/13 07:45:49;;;;;;;14.17;8.47;;;;;;;13.33;24.94;101382.33;1713018;82;21249;-65
2022/03/13 07:48:17;;;;;;;12.30;8.37;;;;;;;13.96;24.85;101384.30;1717482;82;22229;-61
2022/03/13 07:50:45;;;;;;;13.77;8.43;;;;;;;14.54;23.67;101378.00;1720665;82;21257;-59
2022/03/13 07:53:12;;;;;;;11.93;7.27;;;;;;;14.93;23.25;101382.15;1707967;83;21409;-59
2022/03/13 07:55:39;;;;;;;15.20;8.57;;;;;;;14.93;23.25;101382.15;1699608;82;21459;-60
2022/03/13 07:58:08;;;;;;;12.23;7.57;;;;;;;15.23;22.57;101383.70;1684641;82;21303;-59
2022/03/13 08:00:37;;;;;;;12.20;7.27;;;;;;;15.44;22.34;101361.06;1691048;83;21543;-59
2022/03/13 08:03:04;;;;;;;16.33;9.63;;;;;;;15.59;22.11;101385.45;1688957;81;21782;-60
2022/03/13 08:05:32;;;;;;;15.27;8.70;;;;;;;15.95;21.97;101389.85;1699834;83;21836;-61
2022/03/13 08:07:59;;;;;;;14.50;8.73;;;;;;;15.81;21.28;101388.92;1694222;83;21774;-59
2022/03/13 08:10:28;;;;;;;13.53;8.17;;;;;;;15.42;21.24;101395.42;1693287;83;21818;-61
2022/03/13 08:12:58;;;;;;;13.03;6.93;;;;;;;15.17;21.28;101396.25;1679503;83;21698;-61
2022/03/13 08:15:26;;;;;;;9.30;5.97;;;;;;;15.01;21.13;101395.98;1685597;83;21638;-62
2022/03/13 08:17:55;;;;;;;10.17;6.20;;;;;;;14.99;21.61;101401.89;1683805;83;21801;-60
2022/03/13 08:20:25;;;;;;;14.67;8.03;;;;;;;14.70;21.28;101396.20;1682561;84;21822;-61
2022/03/13 08:22:52;;;;;;;15.97;8.13;;;;;;;14.81;21.74;101400.15;1683669;83;21525;-61
2022/03/13 08:25:20;;;;;;;15.13;8.87;;;;;;;14.80;21.53;101398.03;1699925;82;21826;-62
2022/03/13 08:27:48;;;;;;;13.47;8.23;;;;;;;14.74;21.59;101392.22;1694986;81;21778;-60
2022/03/13 08:30:15;;;;;;;12.50;8.20;;;;;;;14.57;21.38;101396.82;1691709;82;21745;-61
2022/03/13 08:32:45;;;;;;;14.00;8.53;;;;;;;14.07;21.61;101404.03;1685017;83;21257;-60
2022/03/13 08:35:14;;;;;;;14.93;8.33;;;;;;;14.07;21.61;101404.03;1685021;83;21488;-59
2022/03/13 08:37:42;;;;;;;14.97;8.47;;;;;;;14.21;22.03;101408.50;1692744;83;21230;-60
2022/03/13 08:40:11;;;;;;;14.87;8.30;;;;;;;14.66;21.70;101398.04;1689547;83;21567;-58
2022/03/13 08:42:41;;;;;;;15.63;8.23;;;;;;;14.98;21.98;101400.78;1688636;83;21450;-60
2022/03/13 08:45:11;;;;;;;16.80;8.40;;;;;;;15.71;21.04;101406.31;1694532;83;21331;-60
2022/03/13 08:47:40;;;;;;;14.73;7.42;;;;;;;15.58;21.08;101404.86;1694373;83;21283;-64
2022/03/13 08:50:10;;;;;;;12.67;8.07;;;;;;;15.86;21.75;101393.09;1700682;83;22375;-60
2022/03/13 08:52:38;;;;;;;14.83;8.80;;;;;;;16.92;20.33;101394.28;1684935;83;21482;-61
2022/03/13 08:55:13;;;;;;;12.87;8.33;;;;;;;16.92;20.33;101394.28;1692805;83;23099;-60
2022/03/13 08:57:42;;;;;;;10.43;7.30;;;;;;;17.17;20.29;101395.89;1710325;82;22184;-64
2022/03/13 09:00:14;;;;;;;13.03;7.63;;;;;;;17.63;19.76;101395.97;1710737;82;21764;-59
2022/03/13 09:02:43;;;;;;;15.10;7.17;;;;;;;17.33;19.50;101396.83;1687655;83;22173;-59
2022/03/13 09:05:13;;;;;;;10.63;6.30;;;;;;;17.15;19.72;101397.39;1706876;83;21554;-60
2022/03/13 09:07:41;;;;;;;12.87;7.00;;;;;;;17.58;19.93;101394.94;1696878;82;21938;-63
2022/03/13 09:10:11;;;;;;;10.33;6.60;;;;;;;18.05;19.85;101390.52;1694235;83;21735;-61
2022/03/13 09:12:39;;;;;;;11.47;6.53;;;;;;;18.50;19.40;101387.50;1690034;82;21780;-60
2022/03/13 09:15:07;;;;;;;12.60;7.07;;;;;;;18.48;19.38;101384.23;1701286;83;21663;-64
2022/03/13 09:17:35;;;;;;;9.77;6.17;;;;;;;18.25;18.88;101379.42;1692553;81;21749;-63
2022/03/13 09:20:05;;;;;;;12.07;7.47;;;;;;;17.22;19.67;101391.64;1711202;83;22257;-59
2022/03/13 09:22:35;;;;;;;11.10;6.63;;;;;;;17.15;20.10;101393.95;1691868;82;21826;-61
2022/03/13 09:25:03;;;;;;;11.37;6.23;;;;;;;17.15;20.10;101393.95;1714460;83;21534;-65
2022/03/13 09:27:32;;;;;;;8.93;5.27;;;;;;;16.62;20.42;101398.97;1701727;84;21383;-60
2022/03/13 09:30:00;;;;;;;8.50;5.03;;;;;;;16.72;20.71;101398.92;1703581;83;21380;-59
2022/03/13 09:32:28;;;;;;;7.63;4.37;;;;;;;17.42;20.36;101388.22;1710977;81;21289;-59
2022/03/13 09:34:56;;;;;;;9.60;4.40;;;;;;;17.97;20.46;101386.27;1714402;82;21484;-60
2022/03/13 09:37:23;;;;;;;7.70;4.10;;;;;;;18.18;20.16;101375.50;1709728;82;21601;-60
2022/03/13 09:39:52;;;;;;;7.73;4.53;;;;;;;18.08;20.12;101377.73;1715264;82;21628;-64
2022/03/13 09:42:22;;;;;;;7.53;4.97;;;;;;;18.08;20.12;101377.73;1704326;83;21548;-62
2022/03/13 09:44:51;;;;;;;7.83;4.20;;;;;;;18.22;19.53;101371.91;1703937;82;21740;-59
2022/03/13 09:47:19;;;;;;;6.23;3.50;;;;;;;18.10;19.18;101375.69;1711105;82;21933;-60
2022/03/13 09:49:48;;;;;;;6.90;3.77;;;;;;;17.55;19.11;101381.67;1700196;82;22116;-65
2022/03/13 09:52:15;;;;;;;6.63;3.07;;;;;;;16.60;19.42;101389.96;1712209;83;22016;-59
2022/03/13 09:54:43;;;;;;;7.33;3.60;;;;;;;16.09;20.45;101385.48;1714688;81;21404;-60
2022/03/13 09:57:10;;;;;;;7.37;3.93;;;;;;;15.60;20.64;101392.84;1703326;83;21303;-60
2022/03/13 09:59:37;;;;;;;6.97;3.37;;;;;;;15.25;21.10;101397.45;1703537;82;22452;-60
2022/03/13 10:02:07;;;;;;;7.10;4.30;;;;;;;15.51;21.10;101396.09;1686954;83;21773;-60
2022/03/13 10:04:34;;;;;;;6.63;4.03;;;;;;;15.57;20.93;101396.67;1697980;83;21406;-60
2022/03/13 10:07:07;;;;;;;7.57;4.07;;;;;;;15.86;21.14;101394.92;1709373;83;20997;-60
2022/03/13 10:09:35;;;;;;;8.65;4.08;;;;;;;16.18;20.40;101390.42;1684280;81;21689;-59
2022/03/13 10:12:13;;;;;;;9.37;4.13;;;;;;;15.98;20.84;101390.26;1687738;84;21085;-64
2022/03/13 10:15:01;;;;;;;8.47;3.67;;;;;;;16.31;20.68;101388.38;1689591;82;21298;-59
2022/03/13 10:17:32;;;;;;;9.17;4.00;;;;;;;16.37;20.53;101392.06;1699663;83;21933;-60
2022/03/13 10:20:19;;;;;;;7.00;4.27;;;;;;;16.30;20.25;101387.56;1704051;83;21696;-59
2022/03/13 10:22:52;;;;;;;12.50;4.03;;;;;;;16.12;20.72;101398.26;1697704;83;21267;-63
2022/03/13 10:25:38;;;;;;;8.70;4.80;;;;;;;16.08;21.22;101393.88;1704469;83;21349;-60
2022/03/13 10:28:31;;;;;;;7.23;3.97;;;;;;;15.89;21.29;101392.73;1700085;83;21234;-61
2022/03/13 10:31:04;;;;;;;7.73;4.10;;;;;;;16.32;20.26;101391.81;1737207;80;21238;-59
2022/03/13 10:33:47;;;;;;;8.73;4.27;;;;;;;16.25;20.77;101395.23;1712355;82;21801;-61
2022/03/13 10:36:21;;;;;;;7.93;4.20;;;;;;;15.90;20.83;101394.84;1713754;81;21350;-66
2022/03/13 10:38:49;;;;;;;9.33;4.60;;;;;;;15.95;20.46;101387.23;1693237;82;21213;-61
2022/03/13 10:41:17;;;;;;;7.37;4.40;;;;;;;15.32;21.29;101390.45;1710680;83;21331;-60
2022/03/13 10:43:55;;;;;;;9.93;4.57;;;;;;;15.12;21.49;101392.56;1704950;82;21313;-61
2022/03/13 10:46:31;;;;;;;8.97;4.63;;;;;;;14.83;21.84;101392.42;1702795;81;21186;-62
2022/03/13 10:49:00;;;;;;;9.03;4.97;;;;;;;15.05;22.28;101388.55;1711404;82;21355;-59
2022/03/13 10:51:45;;;;;;;7.47;4.00;;;;;;;15.81;21.94;101385.79;1733655;80;21251;-65
2022/03/13 10:54:31;;;;;;;9.90;3.97;;;;;;;16.41;20.52;101384.90;1695276;83;22077;-61
2022/03/13 10:57:10;;;;;;;10.43;6.57;;;;;;;16.20;20.37;101380.50;1716712;82;21378;-61
2022/03/13 10:59:42;;;;;;;10.07;6.10;;;;;;;15.42;21.11;101386.69;1713274;82;21292;-62
2022/03/13 11:02:17;;;;;;;9.90;4.87;;;;;;;14.87;21.84;101388.12;1717265;82;21338;-61
2022/03/13 11:04:55;;;;;;;11.60;5.60;;;;;;;14.89;21.69;101392.20;1715704;82;21721;-64
2022/03/13 11:07:22;;;;;;;9.20;4.37;;;;;;;15.64;21.32;101388.83;1716721;82;21379;-61
2022/03/13 11:09:50;;;;;;;7.60;4.00;;;;;;;15.99;21.03;101392.41;1723495;82;22163;-61
2022/03/13 11:12:21;;;;;;;7.57;4.87;;;;;;;15.78;20.82;101395.36;1716263;82;21255;-61
2022/03/13 11:14:53;;;;;;;12.40;5.37;;;;;;;15.53;21.31;101392.77;1711949;82;21163;-66
2022/03/13 11:17:25;;;;;;;8.90;4.83;;;;;;;15.76;21.46;101387.38;1712295;82;21508;-64
2022/03/13 11:19:57;;;;;;;9.07;4.17;;;;;;;15.38;21.49;101394.16;1720181;82;21732;-61
2022/03/13 11:22:24;;;;;;;8.20;3.97;;;;;;;15.67;21.10;101393.75;1719645;82;21895;-62
2022/03/13 11:24:55;;;;;;;8.33;4.47;;;;;;;15.65;21.20;101390.00;1725893;82;21289;-66